sensor_id;sensor_type;location;lat;lon;timestamp;P1;durP1;ratioP1;P2;durP2;ratioP2
5608;SDS011;2826;51.354;9.588;2023-03-03T00:02:22;49.20;;;17.80;;
5608;SDS011;2826;51.354;9.588;2023-03-03T00:04:49;50.13;;;20.03;;
5608;SDS011;2826;51.354;9.588;2023-03-03T00:07:16;46.63;;;17.77;;
5608;SDS011;2826;51.354;9.588;2023-03-03T00:09:47;48.97;;;18.10;;
5608;SDS011;2826;51.354;9.588;2023-03-03T00:12:18;56.47;;;20.20;;
5608;SDS011;2826;51.354;9.588;2023-03-03T00:14:49;42.60;;;18.40;;
5608;SDS011;2826;51.354;9.588;2023-03-03T00:17:18;63.27;;;21.83;;
5608;SDS011;2826;51.354;9.588;2023-03-03T00:19:47;43.50;;;17.87;;
5608;SDS011;2826;51.354;9.588;2023-03-03T00:22:15;45.90;;;17.27;;
5608;SDS011;2826;51.354;9.588;2023-03-03T00:24:51;41.20;;;17.90;;
5608;SDS011;2826;51.354;9.588;2023-03-03T00:27:21;42.90;;;17.70;;
5608;SDS011;2826;51.354;9.588;2023-03-03T00:29:55;49.77;;;19.50;;
5608;SDS011;2826;51.354;9.588;2023-03-03T00:32:23;46.87;;;19.20;;
5608;SDS011;2826;51.354;9.588;2023-03-03T00:34:51;48.17;;;20.37;;
5608;SDS011;2826;51.354;9.588;2023-03-03T00:37:27;45.33;;;19.87;;
5608;SDS011;2826;51.354;9.588;2023-03-03T00:40:02;47.93;;;19.50;;
5608;SDS011;2826;51.354;9.588;2023-03-03T00:42:41;50.30;;;19.73;;
5608;SDS011;2826;51.354;9.588;2023-03-03T00:48:18;53.83;;;17.40;;
5608;SDS011;2826;51.354;9.588;2023-03-03T00:50:49;44.63;;;19.10;;
5608;SDS011;2826;51.354;9.588;2023-03-03T00:53:18;48.67;;;19.33;;
5608;SDS011;2826;51.354;9.588;2023-03-03T00:55:47;50.00;;;18.20;;
5608;SDS011;2826;51.354;9.588;2023-03-03T00:58:15;46.57;;;16.43;;
5608;SDS011;2826;51.354;9.588;2023-03-03T01:00:46;43.63;;;17.30;;
5608;SDS011;2826;51.354;9.588;2023-03-03T01:03:17;45.63;;;18.80;;
5608;SDS011;2826;51.354;9.588;2023-03-03T01:05:45;43.53;;;18.43;;
5608;SDS011;2826;51.354;9.588;2023-03-03T01:08:12;51.50;;;19.27;;
5608;SDS011;2826;51.354;9.588;2023-03-03T01:10:40;42.37;;;17.90;;
5608;SDS011;2826;51.354;9.588;2023-03-03T01:13:11;46.50;;;19.10;;
5608;SDS011;2826;51.354;9.588;2023-03-03T01:15:38;44.87;;;17.43;;
5608;SDS011;2826;51.354;9.588;2023-03-03T01:18:06;41.63;;;18.30;;
5608;SDS011;2826;51.354;9.588;2023-03-03T01:20:34;39.93;;;18.30;;
5608;SDS011;2826;51.354;9.588;2023-03-03T01:23:01;36.90;;;14.07;;
5608;SDS011;2826;51.354;9.588;2023-03-03T01:25:28;42.63;;;16.83;;
5608;SDS011;2826;51.354;9.588;2023-03-03T01:27:55;41.23;;;16.37;;
5608;SDS011;2826;51.354;9.588;2023-03-03T01:30:22;39.53;;;16.83;;
5608;SDS011;2826;51.354;9.588;2023-03-03T01:32:49;31.13;;;13.63;;
5608;SDS011;2826;51.354;9.588;2023-03-03T01:35:17;41.30;;;15.50;;
5608;SDS011;2826;51.354;9.588;2023-03-03T01:37:44;37.67;;;16.30;;
5608;SDS011;2826;51.354;9.588;2023-03-03T01:40:13;37.13;;;15.47;;
5608;SDS011;2826;51.354;9.588;2023-03-03T01:42:42;42.83;;;16.37;;
5608;SDS011;2826;51.354;9.588;2023-03-03T01:45:11;40.27;;;15.60;;
5608;SDS011;2826;51.354;9.588;2023-03-03T01:47:41;36.70;;;13.50;;
5608;SDS011;2826;51.354;9.588;2023-03-03T01:50:12;40.83;;;16.27;;
5608;SDS011;2826;51.354;9.588;2023-03-03T01:52:45;35.97;;;14.50;;
5608;SDS011;2826;51.354;9.588;2023-03-03T01:55:13;38.40;;;16.40;;
5608;SDS011;2826;51.354;9.588;2023-03-03T01:57:45;42.10;;;16.93;;
5608;SDS011;2826;51.354;9.588;2023-03-03T02:00:17;31.43;;;12.33;;
5608;SDS011;2826;51.354;9.588;2023-03-03T02:02:44;34.13;;;14.47;;
5608;SDS011;2826;51.354;9.588;2023-03-03T02:05:12;41.17;;;16.77;;
5608;SDS011;2826;51.354;9.588;2023-03-03T02:07:41;46.63;;;15.53;;
5608;SDS011;2826;51.354;9.588;2023-03-03T02:10:13;32.30;;;13.40;;
5608;SDS011;2826;51.354;9.588;2023-03-03T02:12:43;32.17;;;14.60;;
5608;SDS011;2826;51.354;9.588;2023-03-03T02:15:17;40.20;;;16.30;;
5608;SDS011;2826;51.354;9.588;2023-03-03T02:17:46;42.17;;;16.50;;
5608;SDS011;2826;51.354;9.588;2023-03-03T02:20:15;37.53;;;15.67;;
5608;SDS011;2826;51.354;9.588;2023-03-03T02:22:54;36.50;;;14.57;;
5608;SDS011;2826;51.354;9.588;2023-03-03T02:25:29;39.00;;;13.70;;
5608;SDS011;2826;51.354;9.588;2023-03-03T02:28:03;39.47;;;15.40;;
5608;SDS011;2826;51.354;9.588;2023-03-03T02:34:11;35.33;;;13.13;;
5608;SDS011;2826;51.354;9.588;2023-03-03T02:36:39;22.73;;;6.93;;
5608;SDS011;2826;51.354;9.588;2023-03-03T02:39:06;33.90;;;13.63;;
5608;SDS011;2826;51.354;9.588;2023-03-03T02:41:35;31.83;;;13.23;;
5608;SDS011;2826;51.354;9.588;2023-03-03T02:44:08;34.60;;;12.27;;
5608;SDS011;2826;51.354;9.588;2023-03-03T02:46:37;39.63;;;14.30;;
5608;SDS011;2826;51.354;9.588;2023-03-03T02:49:06;35.07;;;13.40;;
5608;SDS011;2826;51.354;9.588;2023-03-03T02:51:35;44.50;;;13.67;;
5608;SDS011;2826;51.354;9.588;2023-03-03T02:54:03;36.67;;;15.00;;
5608;SDS011;2826;51.354;9.588;2023-03-03T02:56:31;32.17;;;13.10;;
5608;SDS011;2826;51.354;9.588;2023-03-03T02:58:58;42.73;;;13.77;;
5608;SDS011;2826;51.354;9.588;2023-03-03T03:01:30;45.83;;;15.40;;
5608;SDS011;2826;51.354;9.588;2023-03-03T03:04:04;48.97;;;15.70;;
5608;SDS011;2826;51.354;9.588;2023-03-03T03:06:32;48.80;;;17.63;;
5608;SDS011;2826;51.354;9.588;2023-03-03T03:09:00;33.97;;;13.20;;
5608;SDS011;2826;51.354;9.588;2023-03-03T03:11:26;44.60;;;15.07;;
5608;SDS011;2826;51.354;9.588;2023-03-03T03:13:53;50.70;;;15.77;;
5608;SDS011;2826;51.354;9.588;2023-03-03T03:16:20;61.67;;;13.40;;
5608;SDS011;2826;51.354;9.588;2023-03-03T03:18:48;49.40;;;13.97;;
5608;SDS011;2826;51.354;9.588;2023-03-03T03:21:16;30.63;;;12.40;;
5608;SDS011;2826;51.354;9.588;2023-03-03T03:23:42;42.37;;;15.30;;
5608;SDS011;2826;51.354;9.588;2023-03-03T03:26:10;32.30;;;11.40;;
5608;SDS011;2826;51.354;9.588;2023-03-03T03:28:37;41.50;;;14.37;;
5608;SDS011;2826;51.354;9.588;2023-03-03T03:31:05;40.93;;;15.07;;
5608;SDS011;2826;51.354;9.588;2023-03-03T03:33:35;46.63;;;14.23;;
5608;SDS011;2826;51.354;9.588;2023-03-03T03:36:04;43.50;;;14.87;;
5608;SDS011;2826;51.354;9.588;2023-03-03T03:38:32;41.43;;;14.03;;
5608;SDS011;2826;51.354;9.588;2023-03-03T03:41:02;47.60;;;15.57;;
5608;SDS011;2826;51.354;9.588;2023-03-03T03:43:31;63.00;;;16.17;;
5608;SDS011;2826;51.354;9.588;2023-03-03T03:45:58;90.53;;;14.30;;
5608;SDS011;2826;51.354;9.588;2023-03-03T03:48:25;90.07;;;13.27;;
5608;SDS011;2826;51.354;9.588;2023-03-03T03:50:53;87.50;;;13.47;;
5608;SDS011;2826;51.354;9.588;2023-03-03T03:53:23;89.07;;;13.17;;
5608;SDS011;2826;51.354;9.588;2023-03-03T03:55:50;75.83;;;11.77;;
5608;SDS011;2826;51.354;9.588;2023-03-03T03:58:17;89.00;;;13.17;;
5608;SDS011;2826;51.354;9.588;2023-03-03T04:00:51;145.60;;;13.53;;
5608;SDS011;2826;51.354;9.588;2023-03-03T04:03:18;60.57;;;11.20;;
5608;SDS011;2826;51.354;9.588;2023-03-03T04:05:46;81.30;;;11.63;;
5608;SDS011;2826;51.354;9.588;2023-03-03T04:08:13;156.27;;;14.40;;
5608;SDS011;2826;51.354;9.588;2023-03-03T04:10:47;65.63;;;14.00;;
5608;SDS011;2826;51.354;9.588;2023-03-03T04:13:14;52.57;;;13.07;;
5608;SDS011;2826;51.354;9.588;2023-03-03T04:15:41;72.63;;;10.90;;
5608;SDS011;2826;51.354;9.588;2023-03-03T04:18:08;95.30;;;10.80;;
5608;SDS011;2826;51.354;9.588;2023-03-03T04:20:34;78.20;;;12.37;;
5608;SDS011;2826;51.354;9.588;2023-03-03T04:23:01;60.47;;;10.43;;
5608;SDS011;2826;51.354;9.588;2023-03-03T04:25:29;44.43;;;10.97;;
5608;SDS011;2826;51.354;9.588;2023-03-03T04:27:58;48.10;;;7.33;;
5608;SDS011;2826;51.354;9.588;2023-03-03T04:30:25;73.27;;;10.90;;
5608;SDS011;2826;51.354;9.588;2023-03-03T04:32:54;99.63;;;13.10;;
5608;SDS011;2826;51.354;9.588;2023-03-03T04:35:24;127.03;;;12.87;;
5608;SDS011;2826;51.354;9.588;2023-03-03T04:37:51;161.53;;;13.20;;
5608;SDS011;2826;51.354;9.588;2023-03-03T04:40:19;152.03;;;11.17;;
5608;SDS011;2826;51.354;9.588;2023-03-03T04:42:48;55.40;;;11.20;;
5608;SDS011;2826;51.354;9.588;2023-03-03T04:45:16;120.50;;;11.97;;
5608;SDS011;2826;51.354;9.588;2023-03-03T04:47:44;142.37;;;11.90;;
5608;SDS011;2826;51.354;9.588;2023-03-03T04:50:11;44.70;;;10.30;;
5608;SDS011;2826;51.354;9.588;2023-03-03T04:52:39;47.33;;;12.20;;
5608;SDS011;2826;51.354;9.588;2023-03-03T04:55:07;40.37;;;8.80;;
5608;SDS011;2826;51.354;9.588;2023-03-03T04:57:35;48.00;;;10.23;;
5608;SDS011;2826;51.354;9.588;2023-03-03T05:00:02;58.60;;;10.60;;
5608;SDS011;2826;51.354;9.588;2023-03-03T05:02:32;100.13;;;12.10;;
5608;SDS011;2826;51.354;9.588;2023-03-03T05:04:59;25.10;;;10.00;;
5608;SDS011;2826;51.354;9.588;2023-03-03T05:07:25;165.67;;;11.57;;
5608;SDS011;2826;51.354;9.588;2023-03-03T05:09:52;81.57;;;12.00;;
5608;SDS011;2826;51.354;9.588;2023-03-03T05:12:18;104.07;;;12.17;;
5608;SDS011;2826;51.354;9.588;2023-03-03T05:14:45;132.37;;;13.20;;
5608;SDS011;2826;51.354;9.588;2023-03-03T05:17:11;102.33;;;11.93;;
5608;SDS011;2826;51.354;9.588;2023-03-03T05:19:39;40.60;;;10.63;;
5608;SDS011;2826;51.354;9.588;2023-03-03T05:22:07;56.93;;;13.67;;
5608;SDS011;2826;51.354;9.588;2023-03-03T05:24:34;117.23;;;12.37;;
5608;SDS011;2826;51.354;9.588;2023-03-03T05:27:01;126.57;;;12.00;;
5608;SDS011;2826;51.354;9.588;2023-03-03T05:29:28;62.70;;;10.67;;
5608;SDS011;2826;51.354;9.588;2023-03-03T05:31:55;20.53;;;9.00;;
5608;SDS011;2826;51.354;9.588;2023-03-03T05:34:22;44.27;;;9.47;;
5608;SDS011;2826;51.354;9.588;2023-03-03T05:36:49;56.13;;;10.50;;
5608;SDS011;2826;51.354;9.588;2023-03-03T05:39:16;49.80;;;10.87;;
5608;SDS011;2826;51.354;9.588;2023-03-03T05:41:43;155.80;;;13.20;;
5608;SDS011;2826;51.354;9.588;2023-03-03T05:44:09;74.30;;;11.43;;
5608;SDS011;2826;51.354;9.588;2023-03-03T05:46:36;136.77;;;12.23;;
5608;SDS011;2826;51.354;9.588;2023-03-03T05:49:02;188.37;;;14.03;;
5608;SDS011;2826;51.354;9.588;2023-03-03T05:51:29;52.33;;;12.00;;
5608;SDS011;2826;51.354;9.588;2023-03-03T05:53:57;64.70;;;12.53;;
5608;SDS011;2826;51.354;9.588;2023-03-03T05:56:24;76.17;;;11.23;;
5608;SDS011;2826;51.354;9.588;2023-03-03T05:58:50;136.17;;;12.27;;
5608;SDS011;2826;51.354;9.588;2023-03-03T06:01:17;65.13;;;11.90;;
5608;SDS011;2826;51.354;9.588;2023-03-03T06:03:44;239.40;;;13.70;;
5608;SDS011;2826;51.354;9.588;2023-03-03T06:06:10;101.17;;;13.70;;
5608;SDS011;2826;51.354;9.588;2023-03-03T06:08:38;45.17;;;9.50;;
5608;SDS011;2826;51.354;9.588;2023-03-03T06:11:06;61.13;;;10.80;;
5608;SDS011;2826;51.354;9.588;2023-03-03T06:13:33;61.83;;;10.27;;
5608;SDS011;2826;51.354;9.588;2023-03-03T06:15:59;65.73;;;10.47;;
5608;SDS011;2826;51.354;9.588;2023-03-03T06:18:26;58.07;;;11.57;;
5608;SDS011;2826;51.354;9.588;2023-03-03T06:20:54;33.70;;;10.57;;
5608;SDS011;2826;51.354;9.588;2023-03-03T06:23:21;51.87;;;10.70;;
5608;SDS011;2826;51.354;9.588;2023-03-03T06:25:47;58.20;;;10.90;;
5608;SDS011;2826;51.354;9.588;2023-03-03T06:28:16;39.67;;;11.47;;
5608;SDS011;2826;51.354;9.588;2023-03-03T06:30:42;74.23;;;11.87;;
5608;SDS011;2826;51.354;9.588;2023-03-03T06:33:09;26.07;;;9.60;;
5608;SDS011;2826;51.354;9.588;2023-03-03T06:35:36;200.10;;;11.70;;
5608;SDS011;2826;51.354;9.588;2023-03-03T06:38:02;103.87;;;11.70;;
5608;SDS011;2826;51.354;9.588;2023-03-03T06:40:29;519.60;;;21.00;;
5608;SDS011;2826;51.354;9.588;2023-03-03T06:42:55;200.20;;;14.53;;
5608;SDS011;2826;51.354;9.588;2023-03-03T06:45:23;132.17;;;11.60;;
5608;SDS011;2826;51.354;9.588;2023-03-03T06:47:50;157.93;;;12.73;;
5608;SDS011;2826;51.354;9.588;2023-03-03T06:50:17;35.83;;;10.20;;
5608;SDS011;2826;51.354;9.588;2023-03-03T06:52:46;42.37;;;10.97;;
5608;SDS011;2826;51.354;9.588;2023-03-03T06:55:16;26.43;;;8.17;;
5608;SDS011;2826;51.354;9.588;2023-03-03T06:57:46;51.83;;;10.33;;
5608;SDS011;2826;51.354;9.588;2023-03-03T07:00:14;31.03;;;10.97;;
5608;SDS011;2826;51.354;9.588;2023-03-03T07:02:45;33.20;;;11.90;;
5608;SDS011;2826;51.354;9.588;2023-03-03T07:05:13;38.63;;;12.80;;
5608;SDS011;2826;51.354;9.588;2023-03-03T07:07:42;90.10;;;11.93;;
5608;SDS011;2826;51.354;9.588;2023-03-03T07:10:12;31.60;;;10.77;;
5608;SDS011;2826;51.354;9.588;2023-03-03T07:12:45;34.93;;;11.30;;
5608;SDS011;2826;51.354;9.588;2023-03-03T07:15:14;29.87;;;10.43;;
5608;SDS011;2826;51.354;9.588;2023-03-03T07:17:43;59.10;;;11.50;;
5608;SDS011;2826;51.354;9.588;2023-03-03T07:20:17;54.00;;;12.50;;
5608;SDS011;2826;51.354;9.588;2023-03-03T07:22:46;32.60;;;10.47;;
5608;SDS011;2826;51.354;9.588;2023-03-03T07:25:21;63.70;;;9.93;;
5608;SDS011;2826;51.354;9.588;2023-03-03T07:27:57;30.30;;;9.90;;
5608;SDS011;2826;51.354;9.588;2023-03-03T07:30:27;62.10;;;8.53;;
5608;SDS011;2826;51.354;9.588;2023-03-03T07:32:56;39.17;;;10.13;;
5608;SDS011;2826;51.354;9.588;2023-03-03T07:38:21;17.13;;;7.40;;
5608;SDS011;2826;51.354;9.588;2023-03-03T07:40:51;19.47;;;8.77;;
5608;SDS011;2826;51.354;9.588;2023-03-03T07:43:33;15.10;;;6.90;;
5608;SDS011;2826;51.354;9.588;2023-03-03T07:46:19;19.10;;;8.73;;
5608;SDS011;2826;51.354;9.588;2023-03-03T07:48:49;19.47;;;8.43;;
5608;SDS011;2826;51.354;9.588;2023-03-03T07:51:19;25.90;;;8.97;;
5608;SDS011;2826;51.354;9.588;2023-03-03T07:53:49;33.47;;;9.13;;
5608;SDS011;2826;51.354;9.588;2023-03-03T07:56:20;15.47;;;6.67;;
5608;SDS011;2826;51.354;9.588;2023-03-03T07:58:53;17.63;;;8.00;;
5608;SDS011;2826;51.354;9.588;2023-03-03T08:01:38;22.77;;;8.30;;
5608;SDS011;2826;51.354;9.588;2023-03-03T08:04:17;21.03;;;9.60;;
5608;SDS011;2826;51.354;9.588;2023-03-03T08:06:49;14.53;;;7.60;;
5608;SDS011;2826;51.354;9.588;2023-03-03T08:14:57;31.73;;;9.63;;
5608;SDS011;2826;51.354;9.588;2023-03-03T08:17:37;27.70;;;7.43;;
5608;SDS011;2826;51.354;9.588;2023-03-03T08:20:10;17.87;;;7.80;;
5608;SDS011;2826;51.354;9.588;2023-03-03T08:23:17;20.17;;;9.43;;
5608;SDS011;2826;51.354;9.588;2023-03-03T08:25:45;25.83;;;9.87;;
5608;SDS011;2826;51.354;9.588;2023-03-03T08:28:13;24.67;;;11.40;;
5608;SDS011;2826;51.354;9.588;2023-03-03T08:30:41;26.53;;;11.23;;
5608;SDS011;2826;51.354;9.588;2023-03-03T08:33:08;20.97;;;9.10;;
5608;SDS011;2826;51.354;9.588;2023-03-03T08:35:35;20.60;;;9.83;;
5608;SDS011;2826;51.354;9.588;2023-03-03T08:38:01;23.37;;;9.73;;
5608;SDS011;2826;51.354;9.588;2023-03-03T08:40:31;26.83;;;9.33;;
5608;SDS011;2826;51.354;9.588;2023-03-03T08:42:58;30.30;;;9.33;;
5608;SDS011;2826;51.354;9.588;2023-03-03T08:45:24;24.10;;;9.27;;
5608;SDS011;2826;51.354;9.588;2023-03-03T08:47:52;19.97;;;9.43;;
5608;SDS011;2826;51.354;9.588;2023-03-03T08:50:19;21.00;;;9.23;;
5608;SDS011;2826;51.354;9.588;2023-03-03T08:52:46;23.43;;;10.83;;
5608;SDS011;2826;51.354;9.588;2023-03-03T08:55:13;25.00;;;11.00;;
5608;SDS011;2826;51.354;9.588;2023-03-03T08:57:41;29.77;;;9.37;;
5608;SDS011;2826;51.354;9.588;2023-03-03T09:00:10;25.47;;;10.93;;
5608;SDS011;2826;51.354;9.588;2023-03-03T09:02:41;25.60;;;10.57;;
5608;SDS011;2826;51.354;9.588;2023-03-03T09:05:08;24.40;;;9.50;;
5608;SDS011;2826;51.354;9.588;2023-03-03T09:07:36;25.07;;;11.00;;
5608;SDS011;2826;51.354;9.588;2023-03-03T09:10:04;28.50;;;11.37;;
5608;SDS011;2826;51.354;9.588;2023-03-03T09:12:32;26.40;;;11.60;;
5608;SDS011;2826;51.354;9.588;2023-03-03T09:15:10;25.70;;;10.97;;
5608;SDS011;2826;51.354;9.588;2023-03-03T09:17:40;21.10;;;8.50;;
5608;SDS011;2826;51.354;9.588;2023-03-03T09:20:19;18.13;;;8.70;;
5608;SDS011;2826;51.354;9.588;2023-03-03T09:22:50;23.60;;;11.10;;
5608;SDS011;2826;51.354;9.588;2023-03-03T09:25:21;23.57;;;11.10;;
5608;SDS011;2826;51.354;9.588;2023-03-03T09:27:53;22.27;;;11.30;;
5608;SDS011;2826;51.354;9.588;2023-03-03T09:30:33;26.67;;;11.60;;
5608;SDS011;2826;51.354;9.588;2023-03-03T09:33:18;26.13;;;9.37;;
5608;SDS011;2826;51.354;9.588;2023-03-03T09:35:50;19.23;;;9.73;;
5608;SDS011;2826;51.354;9.588;2023-03-03T09:38:24;18.00;;;8.43;;
5608;SDS011;2826;51.354;9.588;2023-03-03T09:41:08;20.00;;;9.00;;
5608;SDS011;2826;51.354;9.588;2023-03-03T09:43:54;26.13;;;9.50;;
5608;SDS011;2826;51.354;9.588;2023-03-03T09:46:34;21.27;;;9.00;;
5608;SDS011;2826;51.354;9.588;2023-03-03T09:49:15;19.17;;;9.00;;
5608;SDS011;2826;51.354;9.588;2023-03-03T09:51:56;22.77;;;9.40;;
5608;SDS011;2826;51.354;9.588;2023-03-03T09:54:38;19.17;;;8.47;;
5608;SDS011;2826;51.354;9.588;2023-03-03T09:57:12;18.97;;;9.60;;
5608;SDS011;2826;51.354;9.588;2023-03-03T10:02:40;16.93;;;7.97;;
5608;SDS011;2826;51.354;9.588;2023-03-03T10:05:17;18.23;;;8.23;;
5608;SDS011;2826;51.354;9.588;2023-03-03T10:07:54;16.00;;;7.60;;
5608;SDS011;2826;51.354;9.588;2023-03-03T10:10:30;15.23;;;6.87;;
5608;SDS011;2826;51.354;9.588;2023-03-03T10:13:14;16.53;;;7.13;;
5608;SDS011;2826;51.354;9.588;2023-03-03T10:15:54;17.20;;;7.63;;
5608;SDS011;2826;51.354;9.588;2023-03-03T10:18:37;18.27;;;7.43;;
5608;SDS011;2826;51.354;9.588;2023-03-03T10:21:15;15.60;;;7.70;;
5608;SDS011;2826;51.354;9.588;2023-03-03T10:23:52;12.33;;;6.20;;
5608;SDS011;2826;51.354;9.588;2023-03-03T10:29:26;16.70;;;8.60;;
5608;SDS011;2826;51.354;9.588;2023-03-03T10:35:12;15.30;;;6.67;;
5608;SDS011;2826;51.354;9.588;2023-03-03T10:37:55;17.30;;;7.97;;
5608;SDS011;2826;51.354;9.588;2023-03-03T10:40:35;14.13;;;7.57;;
5608;SDS011;2826;51.354;9.588;2023-03-03T10:43:14;16.87;;;7.40;;
5608;SDS011;2826;51.354;9.588;2023-03-03T10:46:00;17.47;;;7.23;;
5608;SDS011;2826;51.354;9.588;2023-03-03T10:48:46;15.70;;;7.63;;
5608;SDS011;2826;51.354;9.588;2023-03-03T10:51:25;12.47;;;6.60;;
5608;SDS011;2826;51.354;9.588;2023-03-03T10:54:03;15.13;;;7.00;;
5608;SDS011;2826;51.354;9.588;2023-03-03T10:56:42;15.83;;;7.67;;
5608;SDS011;2826;51.354;9.588;2023-03-03T11:02:16;17.70;;;7.90;;
5608;SDS011;2826;51.354;9.588;2023-03-03T11:04:50;17.50;;;7.93;;
5608;SDS011;2826;51.354;9.588;2023-03-03T11:07:32;14.30;;;6.57;;
5608;SDS011;2826;51.354;9.588;2023-03-03T11:10:10;16.53;;;7.23;;
5608;SDS011;2826;51.354;9.588;2023-03-03T11:12:50;11.57;;;6.30;;
5608;SDS011;2826;51.354;9.588;2023-03-03T11:18:31;14.70;;;6.37;;
5608;SDS011;2826;51.354;9.588;2023-03-03T11:21:06;13.43;;;6.10;;
5608;SDS011;2826;51.354;9.588;2023-03-03T11:23:48;17.83;;;8.97;;
5608;SDS011;2826;51.354;9.588;2023-03-03T11:29:35;13.20;;;6.20;;
5608;SDS011;2826;51.354;9.588;2023-03-03T11:32:18;17.40;;;8.20;;
5608;SDS011;2826;51.354;9.588;2023-03-03T11:34:55;12.67;;;7.07;;
5608;SDS011;2826;51.354;9.588;2023-03-03T11:37:34;15.43;;;6.53;;
5608;SDS011;2826;51.354;9.588;2023-03-03T11:40:11;12.50;;;5.97;;
5608;SDS011;2826;51.354;9.588;2023-03-03T11:42:44;17.67;;;8.53;;
5608;SDS011;2826;51.354;9.588;2023-03-03T11:45:21;11.40;;;6.07;;
5608;SDS011;2826;51.354;9.588;2023-03-03T11:47:56;13.13;;;6.57;;
5608;SDS011;2826;51.354;9.588;2023-03-03T11:50:27;13.77;;;6.30;;
5608;SDS011;2826;51.354;9.588;2023-03-03T11:53:03;10.10;;;5.00;;
5608;SDS011;2826;51.354;9.588;2023-03-03T11:55:44;13.10;;;6.17;;
5608;SDS011;2826;51.354;9.588;2023-03-03T11:58:19;12.77;;;6.60;;
5608;SDS011;2826;51.354;9.588;2023-03-03T12:00:51;14.60;;;7.60;;
5608;SDS011;2826;51.354;9.588;2023-03-03T12:03:28;17.63;;;7.63;;
5608;SDS011;2826;51.354;9.588;2023-03-03T12:06:02;11.57;;;6.13;;
5608;SDS011;2826;51.354;9.588;2023-03-03T12:08:49;12.50;;;6.50;;
5608;SDS011;2826;51.354;9.588;2023-03-03T12:11:29;13.23;;;6.93;;
5608;SDS011;2826;51.354;9.588;2023-03-03T12:14:05;15.37;;;6.20;;
5608;SDS011;2826;51.354;9.588;2023-03-03T12:16:45;10.90;;;6.27;;
5608;SDS011;2826;51.354;9.588;2023-03-03T12:19:24;14.07;;;6.53;;
5608;SDS011;2826;51.354;9.588;2023-03-03T12:22:05;9.73;;;6.10;;
5608;SDS011;2826;51.354;9.588;2023-03-03T12:24:42;11.33;;;6.17;;
5608;SDS011;2826;51.354;9.588;2023-03-03T12:27:24;11.50;;;6.20;;
5608;SDS011;2826;51.354;9.588;2023-03-03T12:29:58;11.50;;;6.53;;
5608;SDS011;2826;51.354;9.588;2023-03-03T12:32:41;7.60;;;4.90;;
5608;SDS011;2826;51.354;9.588;2023-03-03T12:35:17;10.73;;;5.97;;
5608;SDS011;2826;51.354;9.588;2023-03-03T12:37:53;11.43;;;6.20;;
5608;SDS011;2826;51.354;9.588;2023-03-03T12:40:30;12.10;;;5.80;;
5608;SDS011;2826;51.354;9.588;2023-03-03T12:43:02;10.20;;;5.20;;
5608;SDS011;2826;51.354;9.588;2023-03-03T12:45:46;9.67;;;5.33;;
5608;SDS011;2826;51.354;9.588;2023-03-03T12:48:22;11.40;;;6.30;;
5608;SDS011;2826;51.354;9.588;2023-03-03T12:50:55;10.53;;;5.10;;
5608;SDS011;2826;51.354;9.588;2023-03-03T12:53:32;4.20;;;2.70;;
5608;SDS011;2826;51.354;9.588;2023-03-03T12:56:11;9.67;;;5.37;;
5608;SDS011;2826;51.354;9.588;2023-03-03T12:58:44;11.73;;;5.80;;
5608;SDS011;2826;51.354;9.588;2023-03-03T13:01:29;8.70;;;4.77;;
5608;SDS011;2826;51.354;9.588;2023-03-03T13:04:10;11.00;;;6.50;;
5608;SDS011;2826;51.354;9.588;2023-03-03T13:06:45;11.20;;;5.87;;
5608;SDS011;2826;51.354;9.588;2023-03-03T13:09:24;11.33;;;5.60;;
5608;SDS011;2826;51.354;9.588;2023-03-03T13:14:55;8.30;;;4.97;;
5608;SDS011;2826;51.354;9.588;2023-03-03T13:17:26;8.47;;;5.17;;
5608;SDS011;2826;51.354;9.588;2023-03-03T13:19:57;10.67;;;5.90;;
5608;SDS011;2826;51.354;9.588;2023-03-03T13:22:32;8.30;;;5.40;;
5608;SDS011;2826;51.354;9.588;2023-03-03T13:25:05;8.70;;;4.70;;
5608;SDS011;2826;51.354;9.588;2023-03-03T13:27:45;8.83;;;5.10;;
5608;SDS011;2826;51.354;9.588;2023-03-03T13:30:18;7.10;;;3.47;;
5608;SDS011;2826;51.354;9.588;2023-03-03T13:32:49;9.87;;;4.93;;
5608;SDS011;2826;51.354;9.588;2023-03-03T13:35:28;11.57;;;5.50;;
5608;SDS011;2826;51.354;9.588;2023-03-03T13:38:05;9.03;;;5.60;;
5608;SDS011;2826;51.354;9.588;2023-03-03T13:40:39;10.83;;;5.70;;
5608;SDS011;2826;51.354;9.588;2023-03-03T13:43:11;15.53;;;6.50;;
5608;SDS011;2826;51.354;9.588;2023-03-03T13:45:47;12.00;;;5.97;;
5608;SDS011;2826;51.354;9.588;2023-03-03T13:48:50;17.03;;;6.70;;
5608;SDS011;2826;51.354;9.588;2023-03-03T13:51:30;9.27;;;5.67;;
5608;SDS011;2826;51.354;9.588;2023-03-03T13:54:06;11.87;;;5.60;;
5608;SDS011;2826;51.354;9.588;2023-03-03T13:59:39;8.93;;;4.83;;
5608;SDS011;2826;51.354;9.588;2023-03-03T14:02:22;9.67;;;4.73;;
5608;SDS011;2826;51.354;9.588;2023-03-03T14:05:10;9.60;;;5.70;;
5608;SDS011;2826;51.354;9.588;2023-03-03T14:07:42;10.40;;;5.40;;
5608;SDS011;2826;51.354;9.588;2023-03-03T14:10:17;10.00;;;5.87;;
5608;SDS011;2826;51.354;9.588;2023-03-03T14:12:48;11.17;;;5.60;;
5608;SDS011;2826;51.354;9.588;2023-03-03T14:15:23;10.43;;;6.00;;
5608;SDS011;2826;51.354;9.588;2023-03-03T14:18:00;10.83;;;5.20;;
5608;SDS011;2826;51.354;9.588;2023-03-03T14:20:34;6.40;;;4.03;;
5608;SDS011;2826;51.354;9.588;2023-03-03T14:23:07;10.67;;;5.57;;
5608;SDS011;2826;51.354;9.588;2023-03-03T14:25:52;9.03;;;5.70;;
5608;SDS011;2826;51.354;9.588;2023-03-03T14:28:23;9.70;;;5.03;;
5608;SDS011;2826;51.354;9.588;2023-03-03T14:30:52;11.60;;;6.00;;
5608;SDS011;2826;51.354;9.588;2023-03-03T14:33:22;12.67;;;5.40;;
5608;SDS011;2826;51.354;9.588;2023-03-03T14:36:01;7.73;;;4.60;;
5608;SDS011;2826;51.354;9.588;2023-03-03T14:38:38;12.63;;;6.20;;
5608;SDS011;2826;51.354;9.588;2023-03-03T14:41:12;9.37;;;4.97;;
5608;SDS011;2826;51.354;9.588;2023-03-03T14:43:45;9.73;;;6.23;;
5608;SDS011;2826;51.354;9.588;2023-03-03T14:46:33;10.90;;;5.93;;
5608;SDS011;2826;51.354;9.588;2023-03-03T14:49:04;8.70;;;4.93;;
5608;SDS011;2826;51.354;9.588;2023-03-03T14:51:38;14.73;;;5.70;;
5608;SDS011;2826;51.354;9.588;2023-03-03T14:54:07;10.30;;;6.33;;
5608;SDS011;2826;51.354;9.588;2023-03-03T14:56:53;12.03;;;5.43;;
5608;SDS011;2826;51.354;9.588;2023-03-03T14:59:22;8.23;;;4.70;;
5608;SDS011;2826;51.354;9.588;2023-03-03T15:01:55;10.10;;;5.63;;
5608;SDS011;2826;51.354;9.588;2023-03-03T15:04:26;15.63;;;6.37;;
5608;SDS011;2826;51.354;9.588;2023-03-03T15:06:55;11.47;;;6.53;;
5608;SDS011;2826;51.354;9.588;2023-03-03T15:09:27;12.30;;;6.87;;
5608;SDS011;2826;51.354;9.588;2023-03-03T15:11:58;10.80;;;6.27;;
5608;SDS011;2826;51.354;9.588;2023-03-03T15:14:29;13.63;;;6.33;;
5608;SDS011;2826;51.354;9.588;2023-03-03T15:17:12;11.97;;;6.53;;
5608;SDS011;2826;51.354;9.588;2023-03-03T15:22:48;14.60;;;7.50;;
5608;SDS011;2826;51.354;9.588;2023-03-03T15:25:25;10.63;;;6.07;;
5608;SDS011;2826;51.354;9.588;2023-03-03T15:28:09;11.47;;;6.20;;
5608;SDS011;2826;51.354;9.588;2023-03-03T15:30:49;14.57;;;7.60;;
5608;SDS011;2826;51.354;9.588;2023-03-03T15:33:20;22.00;;;8.50;;
5608;SDS011;2826;51.354;9.588;2023-03-03T15:35:58;13.00;;;6.43;;
5608;SDS011;2826;51.354;9.588;2023-03-03T15:38:34;15.67;;;7.67;;
5608;SDS011;2826;51.354;9.588;2023-03-03T15:41:16;18.30;;;8.83;;
5608;SDS011;2826;51.354;9.588;2023-03-03T15:44:03;26.67;;;11.70;;
5608;SDS011;2826;51.354;9.588;2023-03-03T15:46:42;19.50;;;9.93;;
5608;SDS011;2826;51.354;9.588;2023-03-03T15:49:23;20.50;;;9.60;;
5608;SDS011;2826;51.354;9.588;2023-03-03T15:52:09;16.03;;;7.63;;
5608;SDS011;2826;51.354;9.588;2023-03-03T15:54:48;15.00;;;8.57;;
5608;SDS011;2826;51.354;9.588;2023-03-03T15:57:28;15.93;;;7.67;;
5608;SDS011;2826;51.354;9.588;2023-03-03T16:02:57;15.50;;;7.70;;
5608;SDS011;2826;51.354;9.588;2023-03-03T16:05:28;17.57;;;9.40;;
5608;SDS011;2826;51.354;9.588;2023-03-03T16:08:03;16.20;;;8.83;;
5608;SDS011;2826;51.354;9.588;2023-03-03T16:10:37;14.40;;;7.83;;
5608;SDS011;2826;51.354;9.588;2023-03-03T16:13:19;12.60;;;6.73;;